Time;durP1;ratioP1;P1;durP2;ratioP2;P2;SDS_P1;SDS_P2;PMS_P1;PMS_P2;Temp;Humidity;BMP_temperature;BMP_pressure;BME280_temperature;BME280_humidity;BME280_pressure;Samples;Min_cycle;Max_cycle;Signal;HPM_P1;HPM_P2
2021/07/07 00:00:11;;;;;;;1.80;1.50;;;;;;;;;;5083842;28;20305;-80
2021/07/07 00:02:37;;;;;;;2.00;1.67;;;;;;;;;;5090808;28;20542;-81
2021/07/07 00:05:03;;;;;;;1.63;1.53;;;;;;;;;;5100375;28;20264;-81
2021/07/07 00:07:29;;;;;;;1.90;1.70;;;;;;;;;;5090469;28;20195;-80
2021/07/07 00:09:56;;;;;;;4.30;1.50;;;;;;;;;;5091397;28;20191;-81
2021/07/07 00:12:22;;;;;;;3.73;1.50;;;;;;;;;;5090210;28;20172;-81
2021/07/07 00:14:48;;;;;;;3.07;1.53;;;;;;;;;;5088862;28;20546;-81
2021/07/07 00:17:14;;;;;;;1.83;1.50;;;;;;;;;;5090027;28;20206;-81
2021/07/07 00:19:40;;;;;;;1.50;1.40;;;;;;;;;;5089105;28;20187;-81
2021/07/07 00:22:06;;;;;;;1.67;1.50;;;;;;;;;;5083577;28;20647;-81
2021/07/07 00:24:32;;;;;;;2.30;1.70;;;;;;;;;;5100722;28;20199;-82
2021/07/07 00:26:58;;;;;;;2.10;1.40;;;;;;;;;;5089671;28;20175;-81
2021/07/07 00:29:24;;;;;;;1.67;1.57;;;;;;;;;;5090393;28;20328;-80
2021/07/07 00:31:50;;;;;;;1.53;1.40;;;;;;;;;;5090840;28;20230;-81
2021/07/07 00:34:16;;;;;;;2.13;1.70;;;;;;;;;;5090414;28;20631;-81
2021/07/07 00:36:42;;;;;;;3.03;1.53;;;;;;;;;;5093684;28;20219;-81
2021/07/07 00:39:08;;;;;;;1.80;1.53;;;;;;;;;;5101099;28;20229;-81
2021/07/07 00:41:34;;;;;;;1.87;1.43;;;;;;;;;;5103797;28;20778;-81
2021/07/07 00:44:00;;;;;;;1.83;1.30;;;;;;;;;;5100683;28;20180;-81
2021/07/07 00:46:28;;;;;;;3.63;1.60;;;;;;;;;;5109219;28;20245;-81
2021/07/07 00:48:54;;;;;;;2.57;1.53;;;;;;;;;;5096070;28;20172;-81
2021/07/07 00:51:20;;;;;;;1.80;1.70;;;;;;;;;;5111450;28;20180;-82
2021/07/07 00:53:46;;;;;;;2.90;1.40;;;;;;;;;;5111006;28;20176;-81
2021/07/07 00:56:12;;;;;;;2.20;1.60;;;;;;;;;;5109919;28;20176;-81
2021/07/07 00:58:38;;;;;;;1.77;1.40;;;;;;;;;;5111007;28;20184;-81
2021/07/07 01:01:05;;;;;;;2.73;1.60;;;;;;;;;;5102920;28;20198;-81
2021/07/07 01:03:33;;;;;;;5.57;1.83;;;;;;;;;;5100828;28;20206;-81
2021/07/07 01:05:59;;;;;;;3.33;1.50;;;;;;;;;;5100230;28;20214;-81
2021/07/07 01:08:25;;;;;;;2.03;1.60;;;;;;;;;;5100628;28;20184;-81
2021/07/07 01:10:51;;;;;;;2.70;1.70;;;;;;;;;;5098288;28;20239;-82
2021/07/07 01:13:17;;;;;;;2.20;1.30;;;;;;;;;;5100563;28;20176;-82
2021/07/07 01:15:45;;;;;;;2.27;2.03;;;;;;;;;;5099641;28;20191;-82
2021/07/07 01:18:11;;;;;;;2.73;1.70;;;;;;;;;;5098019;28;20206;-81
2021/07/07 01:20:37;;;;;;;2.70;1.90;;;;;;;;;;5086997;28;20538;-81
2021/07/07 01:23:03;;;;;;;2.23;1.77;;;;;;;;;;5095351;28;20607;-81
2021/07/07 01:25:29;;;;;;;5.40;1.90;;;;;;;;;;5104121;28;20746;-81
2021/07/07 01:28:00;;;;;;;1.93;1.73;;;;;;;;;;5103400;28;20180;-81
2021/07/07 01:30:26;;;;;;;2.83;2.00;;;;;;;;;;5102266;28;20523;-81
2021/07/07 01:32:52;;;;;;;2.67;1.93;;;;;;;;;;5096473;28;20182;-81
2021/07/07 01:35:19;;;;;;;2.30;2.10;;;;;;;;;;5096598;28;20695;-82
2021/07/07 01:37:45;;;;;;;2.67;2.00;;;;;;;;;;5092722;28;20291;-81
2021/07/07 01:40:15;;;;;;;2.53;2.00;;;;;;;;;;5094828;28;20241;-81
2021/07/07 01:42:41;;;;;;;2.30;1.97;;;;;;;;;;5097891;28;20270;-81
2021/07/07 01:45:11;;;;;;;6.80;2.60;;;;;;;;;;5097350;28;20188;-81
2021/07/07 01:47:38;;;;;;;3.00;2.30;;;;;;;;;;5097509;28;20253;-81
2021/07/07 01:50:05;;;;;;;3.60;2.30;;;;;;;;;;5087949;28;20172;-81
2021/07/07 01:52:31;;;;;;;3.07;2.00;;;;;;;;;;5097053;28;20203;-81
2021/07/07 01:54:58;;;;;;;2.57;2.23;;;;;;;;;;5093782;28;20499;-81
2021/07/07 01:57:24;;;;;;;2.43;2.13;;;;;;;;;;5096455;28;20182;-81
2021/07/07 01:59:50;;;;;;;2.90;2.40;;;;;;;;;;5083053;28;20176;-81
2021/07/07 02:02:16;;;;;;;4.03;1.97;;;;;;;;;;5094673;28;20180;-81
2021/07/07 02:04:42;;;;;;;3.97;2.00;;;;;;;;;;5095850;28;20215;-81
2021/07/07 02:07:08;;;;;;;3.40;1.93;;;;;;;;;;5091267;28;20300;-81
2021/07/07 02:09:34;;;;;;;3.47;2.23;;;;;;;;;;5094016;28;20199;-81
2021/07/07 02:12:00;;;;;;;2.57;2.20;;;;;;;;;;5090413;28;20176;-81
2021/07/07 02:14:26;;;;;;;3.27;2.03;;;;;;;;;;5083868;28;20184;-81
2021/07/07 02:16:53;;;;;;;2.97;2.33;;;;;;;;;;5093752;28;20404;-81
2021/07/07 02:19:19;;;;;;;3.70;1.93;;;;;;;;;;5093971;28;20182;-81
2021/07/07 02:21:45;;;;;;;3.80;1.97;;;;;;;;;;5092578;28;20188;-81
2021/07/07 02:24:11;;;;;;;2.70;2.07;;;;;;;;;;5096937;28;20187;-80
2021/07/07 02:26:37;;;;;;;2.57;1.90;;;;;;;;;;5086833;28;20199;-81
2021/07/07 02:29:04;;;;;;;2.10;1.90;;;;;;;;;;5090709;28;20660;-82
2021/07/07 02:31:30;;;;;;;3.33;1.90;;;;;;;;;;5084952;28;20587;-81
2021/07/07 02:33:56;;;;;;;2.27;1.73;;;;;;;;;;5105344;28;20184;-81
2021/07/07 02:36:22;;;;;;;2.50;2.17;;;;;;;;;;5089257;28;20323;-81
2021/07/07 02:38:48;;;;;;;2.57;1.93;;;;;;;;;;5082326;28;20212;-81
2021/07/07 02:41:14;;;;;;;3.10;2.30;;;;;;;;;;5105298;28;20264;-81
2021/07/07 02:43:40;;;;;;;3.03;2.23;;;;;;;;;;5092253;28;20576;-81
2021/07/07 02:46:06;;;;;;;2.07;1.87;;;;;;;;;;5091130;28;20237;-81
2021/07/07 02:48:32;;;;;;;2.20;1.93;;;;;;;;;;5091657;28;20259;-81
2021/07/07 02:50:58;;;;;;;3.00;2.20;;;;;;;;;;5090859;28;20546;-81
2021/07/07 02:53:24;;;;;;;3.47;2.10;;;;;;;;;;5093271;28;20200;-81
2021/07/07 02:55:50;;;;;;;3.27;2.97;;;;;;;;;;5093208;28;20233;-82
2021/07/07 02:58:16;;;;;;;3.07;2.00;;;;;;;;;;5091492;28;20183;-81
2021/07/07 03:00:44;;;;;;;3.73;1.80;;;;;;;;;;5091676;28;20180;-81
2021/07/07 03:03:11;;;;;;;3.90;1.83;;;;;;;;;;5091660;28;20186;-81
2021/07/07 03:05:39;;;;;;;6.83;2.20;;;;;;;;;;5091538;28;20282;-81
2021/07/07 03:08:05;;;;;;;4.90;2.40;;;;;;;;;;5092716;28;20196;-82
2021/07/07 03:10:31;;;;;;;2.73;2.10;;;;;;;;;;5089661;28;20223;-81
2021/07/07 03:12:57;;;;;;;7.53;2.23;;;;;;;;;;5104222;28;20179;-82
2021/07/07 03:15:25;;;;;;;3.97;2.00;;;;;;;;;;5094243;28;20257;-81
2021/07/07 03:17:51;;;;;;;6.27;2.40;;;;;;;;;;5092767;28;20191;-81
2021/07/07 03:20:17;;;;;;;4.23;2.23;;;;;;;;;;5093188;28;20187;-82
2021/07/07 03:22:43;;;;;;;7.20;2.70;;;;;;;;;;5083505;28;20188;-82
2021/07/07 03:25:09;;;;;;;3.63;2.10;;;;;;;;;;5091767;28;20196;-82
2021/07/07 03:27:36;;;;;;;3.90;2.23;;;;;;;;;;5088573;28;20198;-82
2021/07/07 03:30:02;;;;;;;6.07;2.47;;;;;;;;;;5083750;28;20180;-82
2021/07/07 03:32:28;;;;;;;4.60;2.00;;;;;;;;;;5089230;28;20184;-81
2021/07/07 03:34:54;;;;;;;2.87;2.10;;;;;;;;;;5080376;28;20210;-81
2021/07/07 03:37:20;;;;;;;3.93;2.13;;;;;;;;;;5092103;28;20224;-82
2021/07/07 03:39:46;;;;;;;3.57;2.03;;;;;;;;;;5085514;28;20187;-82
2021/07/07 03:42:12;;;;;;;5.07;2.03;;;;;;;;;;5093215;28;20486;-81
2021/07/07 03:44:38;;;;;;;3.43;2.13;;;;;;;;;;5089372;28;20194;-81
2021/07/07 03:47:04;;;;;;;2.60;1.87;;;;;;;;;;5091965;28;20164;-81
2021/07/07 03:49:30;;;;;;;4.93;2.20;;;;;;;;;;5090875;28;20195;-81
2021/07/07 03:51:56;;;;;;;3.17;1.97;;;;;;;;;;5081829;28;20491;-81
2021/07/07 03:54:24;;;;;;;3.93;1.90;;;;;;;;;;5091486;28;20187;-82
2021/07/07 03:56:51;;;;;;;2.10;1.90;;;;;;;;;;5091263;28;20203;-82
2021/07/07 03:59:17;;;;;;;2.87;2.03;;;;;;;;;;5091709;28;20182;-82
2021/07/07 04:01:43;;;;;;;5.37;2.10;;;;;;;;;;5093231;28;20210;-82
2021/07/07 04:04:09;;;;;;;3.10;1.93;;;;;;;;;;5090051;28;20198;-81
2021/07/07 04:06:35;;;;;;;4.07;2.13;;;;;;;;;;5087133;28;20212;-81
2021/07/07 04:09:01;;;;;;;4.97;2.20;;;;;;;;;;5085571;28;20520;-82
2021/07/07 04:11:27;;;;;;;3.40;1.80;;;;;;;;;;5091250;28;20194;-81
2021/07/07 04:13:53;;;;;;;2.67;1.77;;;;;;;;;;5089324;28;20171;-81
2021/07/07 04:16:19;;;;;;;4.90;2.00;;;;;;;;;;5087482;28;20245;-81
2021/07/07 04:18:45;;;;;;;3.63;2.00;;;;;;;;;;5089679;28;20196;-81
2021/07/07 04:21:11;;;;;;;4.03;1.90;;;;;;;;;;5078416;28;20180;-81
2021/07/07 04:23:37;;;;;;;3.27;1.83;;;;;;;;;;5090339;28;20249;-81
2021/07/07 04:26:03;;;;;;;2.70;2.20;;;;;;;;;;5092335;28;20199;-81
2021/07/07 04:28:29;;;;;;;3.30;2.10;;;;;;;;;;5092204;28;20576;-81
2021/07/07 04:30:55;;;;;;;4.50;2.50;;;;;;;;;;5090493;28;20282;-81
2021/07/07 04:33:21;;;;;;;3.77;2.03;;;;;;;;;;5090906;28;20298;-81
2021/07/07 04:35:47;;;;;;;3.77;1.90;;;;;;;;;;5088540;28;20195;-81
2021/07/07 04:38:13;;;;;;;4.10;2.10;;;;;;;;;;5093143;28;20717;-81
2021/07/07 04:40:39;;;;;;;4.93;2.20;;;;;;;;;;5073830;28;20283;-81
2021/07/07 04:43:05;;;;;;;2.90;1.90;;;;;;;;;;5093005;28;20180;-81
2021/07/07 04:45:32;;;;;;;3.83;2.20;;;;;;;;;;5091788;28;20313;-81
2021/07/07 04:47:58;;;;;;;8.77;2.10;;;;;;;;;;5074583;28;20580;-81
2021/07/07 04:50:24;;;;;;;4.77;2.43;;;;;;;;;;5073557;28;20498;-81
2021/07/07 04:52:50;;;;;;;3.23;2.33;;;;;;;;;;5090763;28;20206;-81
2021/07/07 04:55:17;;;;;;;2.77;2.13;;;;;;;;;;5092008;28;20191;-81
2021/07/07 04:57:43;;;;;;;3.87;2.10;;;;;;;;;;5064647;28;20199;-81
2021/07/07 05:00:21;;;;;;;4.27;2.30;;;;;;;;;;5066824;28;20230;-81
2021/07/07 05:02:47;;;;;;;3.23;1.90;;;;;;;;;;5087120;28;20525;-81
2021/07/07 05:05:14;;;;;;;2.67;1.70;;;;;;;;;;5079885;28;20599;-82
2021/07/07 05:07:40;;;;;;;2.67;2.03;;;;;;;;;;5072465;28;20218;-82
2021/07/07 05:10:08;;;;;;;3.03;2.20;;;;;;;;;;5073861;28;20203;-81
2021/07/07 05:12:34;;;;;;;3.90;2.23;;;;;;;;;;5086372;28;20204;-82
2021/07/07 05:15:00;;;;;;;4.27;2.10;;;;;;;;;;5073570;28;20203;-81
2021/07/07 05:17:27;;;;;;;4.50;2.23;;;;;;;;;;5077273;28;20176;-81
2021/07/07 05:19:53;;;;;;;4.13;2.30;;;;;;;;;;5071138;28;20179;-81
2021/07/07 05:22:19;;;;;;;3.77;2.33;;;;;;;;;;5077329;28;20187;-81
2021/07/07 05:24:46;;;;;;;5.13;2.40;;;;;;;;;;5090333;28;20194;-81
2021/07/07 05:27:12;;;;;;;2.73;1.90;;;;;;;;;;5089568;28;20176;-81
2021/07/07 05:29:39;;;;;;;3.90;1.97;;;;;;;;;;5073724;28;20759;-78
2021/07/07 05:32:05;;;;;;;6.00;2.23;;;;;;;;;;5090416;28;20184;-78
2021/07/07 05:34:31;;;;;;;4.70;2.10;;;;;;;;;;5066369;28;20598;-79
2021/07/07 05:36:57;;;;;;;4.30;2.13;;;;;;;;;;5084250;28;20701;-78
2021/07/07 05:39:23;;;;;;;5.57;2.63;;;;;;;;;;5089472;28;20223;-79
2021/07/07 05:41:50;;;;;;;5.63;2.80;;;;;;;;;;5092198;28;20336;-78
2021/07/07 05:44:16;;;;;;;3.83;2.40;;;;;;;;;;5092205;28;20192;-79
2021/07/07 05:46:42;;;;;;;4.93;2.50;;;;;;;;;;5092821;28;20555;-79
2021/07/07 05:49:08;;;;;;;5.17;2.20;;;;;;;;;;5092640;28;20184;-79
2021/07/07 05:51:34;;;;;;;5.17;2.33;;;;;;;;;;5091469;28;20172;-79
2021/07/07 05:54:00;;;;;;;4.27;2.10;;;;;;;;;;5093148;28;20180;-79
2021/07/07 05:56:26;;;;;;;4.53;2.10;;;;;;;;;;5090369;28;20187;-79
2021/07/07 05:58:52;;;;;;;3.97;2.20;;;;;;;;;;5091125;28;20199;-79
2021/07/07 06:01:18;;;;;;;4.00;1.80;;;;;;;;;;5089397;28;20186;-79
2021/07/07 06:03:44;;;;;;;3.73;2.03;;;;;;;;;;5087292;28;20184;-78
2021/07/07 06:06:10;;;;;;;5.00;2.73;;;;;;;;;;5084052;28;20879;-79
2021/07/07 06:08:36;;;;;;;6.93;2.23;;;;;;;;;;5091241;28;20202;-78
2021/07/07 06:11:02;;;;;;;5.30;2.40;;;;;;;;;;5087680;28;20180;-79
2021/07/07 06:13:28;;;;;;;4.97;2.30;;;;;;;;;;5089868;28;20187;-79
2021/07/07 06:15:54;;;;;;;3.83;2.60;;;;;;;;;;5087705;28;20201;-79
2021/07/07 06:18:21;;;;;;;3.73;2.07;;;;;;;;;;5092057;28;20616;-79
2021/07/07 06:20:47;;;;;;;4.10;1.93;;;;;;;;;;5091652;28;20230;-79
2021/07/07 06:23:13;;;;;;;3.57;2.20;;;;;;;;;;5090920;28;20191;-79
2021/07/07 06:25:40;;;;;;;5.40;2.23;;;;;;;;;;5086912;28;20208;-79
2021/07/07 06:28:06;;;;;;;4.73;2.40;;;;;;;;;;5097442;28;20250;-79
2021/07/07 06:30:32;;;;;;;3.40;2.30;;;;;;;;;;5089935;28;20172;-79
2021/07/07 06:33:00;;;;;;;5.23;2.57;;;;;;;;;;5070892;28;20187;-81
2021/07/07 06:35:30;;;;;;;4.70;2.10;;;;;;;;;;5083224;28;20847;-82
2021/07/07 06:37:56;;;;;;;4.00;2.00;;;;;;;;;;5095205;28;20218;-83
2021/07/07 06:40:22;;;;;;;3.57;2.30;;;;;;;;;;5093818;28;20172;-82
2021/07/07 06:42:49;;;;;;;6.20;2.50;;;;;;;;;;5095422;28;20253;-82
2021/07/07 06:45:16;;;;;;;3.13;1.87;;;;;;;;;;5093834;28;20294;-81
2021/07/07 06:47:42;;;;;;;4.17;2.20;;;;;;;;;;5093115;28;20225;-83
2021/07/07 06:50:09;;;;;;;9.27;2.60;;;;;;;;;;5092718;28;20241;-82
2021/07/07 06:52:35;;;;;;;5.43;2.80;;;;;;;;;;5092948;28;20514;-83
2021/07/07 06:55:03;;;;;;;4.93;2.37;;;;;;;;;;5088621;28;20667;-83
2021/07/07 06:57:34;;;;;;;6.87;2.20;;;;;;;;;;5090618;28;20505;-83
2021/07/07 07:00:00;;;;;;;5.40;2.40;;;;;;;;;;5091386;28;20551;-83
2021/07/07 07:02:30;;;;;;;3.53;2.40;;;;;;;;;;5103012;28;20184;-82
2021/07/07 07:04:56;;;;;;;3.80;2.63;;;;;;;;;;5093247;28;20653;-82
2021/07/07 07:07:22;;;;;;;5.27;2.33;;;;;;;;;;5090850;28;20199;-82
2021/07/07 07:09:48;;;;;;;3.23;2.60;;;;;;;;;;5090795;28;20726;-82
2021/07/07 07:12:14;;;;;;;3.60;2.33;;;;;;;;;;5087055;28;20330;-82
2021/07/07 07:14:40;;;;;;;4.47;2.53;;;;;;;;;;5093019;28;20342;-82
2021/07/07 07:17:06;;;;;;;5.73;3.20;;;;;;;;;;5091662;28;20188;-82
2021/07/07 07:19:32;;;;;;;6.83;2.73;;;;;;;;;;5092054;28;20171;-82
2021/07/07 07:21:58;;;;;;;4.47;2.93;;;;;;;;;;5090798;28;20256;-83
2021/07/07 07:24:30;;;;;;;8.63;3.17;;;;;;;;;;5092279;28;20188;-82
2021/07/07 07:26:57;;;;;;;4.63;3.10;;;;;;;;;;5087788;28;20987;-83
2021/07/07 07:29:23;;;;;;;4.43;2.67;;;;;;;;;;5087059;28;20183;-83
2021/07/07 07:31:49;;;;;;;4.37;2.50;;;;;;;;;;5084808;28;20191;-84
2021/07/07 07:34:15;;;;;;;8.37;3.20;;;;;;;;;;5090271;28;20198;-83
2021/07/07 07:36:42;;;;;;;6.43;2.67;;;;;;;;;;5088965;28;20219;-83
2021/07/07 07:39:09;;;;;;;5.63;2.70;;;;;;;;;;5084750;28;20184;-83
2021/07/07 07:41:38;;;;;;;18.50;3.13;;;;;;;;;;5093720;28;20179;-83
2021/07/07 07:44:07;;;;;;;5.83;3.33;;;;;;;;;;5084251;28;20245;-83
2021/07/07 07:46:33;;;;;;;6.43;3.10;;;;;;;;;;5092765;28;20713;-83
2021/07/07 07:49:00;;;;;;;5.70;2.73;;;;;;;;;;5092010;28;20179;-83
2021/07/07 07:51:26;;;;;;;5.97;2.77;;;;;;;;;;5090654;28;20195;-83
2021/07/07 07:53:52;;;;;;;4.73;2.40;;;;;;;;;;5087919;28;20232;-82
2021/07/07 07:56:19;;;;;;;5.97;2.70;;;;;;;;;;5091668;28;20179;-83
2021/07/07 07:58:45;;;;;;;5.17;2.43;;;;;;;;;;5091809;28;20184;-84
2021/07/07 08:01:12;;;;;;;6.90;3.27;;;;;;;;;;5092433;28;20274;-84
2021/07/07 08:03:38;;;;;;;9.07;2.80;;;;;;;;;;5082011;28;20180;-84
2021/07/07 08:06:04;;;;;;;2.90;2.50;;;;;;;;;;5100088;28;20196;-85
2021/07/07 08:08:30;;;;;;;5.03;2.93;;;;;;;;;;5088230;28;20176;-84
2021/07/07 08:10:56;;;;;;;4.70;2.40;;;;;;;;;;5083448;28;20181;-83
2021/07/07 08:13:22;;;;;;;9.17;3.07;;;;;;;;;;5083641;28;20176;-83
2021/07/07 08:15:48;;;;;;;6.00;2.70;;;;;;;;;;5089000;28;20541;-81
2021/07/07 08:18:14;;;;;;;7.00;3.20;;;;;;;;;;5091177;28;20230;-81
2021/07/07 08:20:40;;;;;;;10.00;3.03;;;;;;;;;;5089176;28;20175;-81
2021/07/07 08:23:06;;;;;;;4.57;2.57;;;;;;;;;;5084397;28;20249;-81
2021/07/07 08:25:32;;;;;;;6.33;2.73;;;;;;;;;;5076119;28;20241;-81
2021/07/07 08:27:58;;;;;;;486.77;98.93;;;;;;;;;;5089053;28;20172;-81
2021/07/07 08:30:25;;;;;;;256.90;46.90;;;;;;;;;;5091239;28;20182;-82
2021/07/07 08:32:51;;;;;;;1503.93;336.57;;;;;;;;;;5091126;28;20685;-82
2021/07/07 08:35:18;;;;;;;713.57;161.07;;;;;;;;;;5088873;28;20180;-82
2021/07/07 08:37:44;;;;;;;405.70;88.00;;;;;;;;;;5083725;28;20228;-82
2021/07/07 08:40:11;;;;;;;386.53;82.87;;;;;;;;;;5072175;28;20180;-82
2021/07/07 08:42:38;;;;;;;299.30;65.87;;;;;;;;;;5090320;28;20183;-84
2021/07/07 08:45:08;;;;;;;1103.03;261.93;;;;;;;;;;5088431;28;20191;-83
2021/07/07 08:47:38;;;;;;;1355.13;321.97;;;;;;;;;;5082309;28;20530;-83
2021/07/07 08:50:06;;;;;;;941.83;228.57;;;;;;;;;;5090931;28;20263;-82
2021/07/07 08:52:32;;;;;;;180.83;42.93;;;;;;;;;;5094994;28;20247;-79
2021/07/07 08:54:58;;;;;;;106.10;28.63;;;;;;;;;;5094575;28;20184;-81
2021/07/07 08:57:24;;;;;;;57.63;15.17;;;;;;;;;;5093615;28;20194;-80
2021/07/07 08:59:50;;;;;;;44.47;12.37;;;;;;;;;;5094134;28;20518;-80
2021/07/07 09:02:17;;;;;;;23.53;8.47;;;;;;;;;;5090574;28;20179;-80
2021/07/07 09:04:44;;;;;;;27.53;6.83;;;;;;;;;;5092426;28;20188;-80
2021/07/07 09:07:11;;;;;;;11.00;4.37;;;;;;;;;;5094851;28;20206;-81
2021/07/07 09:09:38;;;;;;;10.77;3.80;;;;;;;;;;5087873;28;20193;-85
2021/07/07 09:12:14;;;;;;;11.67;4.40;;;;;;;;;;5094543;28;20172;-86
2021/07/07 09:14:42;;;;;;;7.87;3.80;;;;;;;;;;5094541;28;20212;-84
2021/07/07 09:17:12;;;;;;;9.73;3.60;;;;;;;;;;5095158;28;20184;-81
2021/07/07 09:19:39;;;;;;;27.67;15.67;;;;;;;;;;5091095;28;20636;-81
2021/07/07 09:22:08;;;;;;;16.90;10.17;;;;;;;;;;5090720;28;20673;-82
2021/07/07 09:24:35;;;;;;;13.53;8.80;;;;;;;;;;5087173;28;20585;-80
2021/07/07 09:27:19;;;;;;;9.03;4.93;;;;;;;;;;5092490;28;20824;-80
2021/07/07 09:29:52;;;;;;;6.87;4.53;;;;;;;;;;5081994;28;20213;-80
2021/07/07 09:32:19;;;;;;;7.60;3.37;;;;;;;;;;5094568;28;20234;-80
2021/07/07 09:34:48;;;;;;;8.53;2.80;;;;;;;;;;5093838;28;20185;-79
2021/07/07 09:37:22;;;;;;;10.57;2.63;;;;;;;;;;5092697;28;20218;-79
2021/07/07 09:39:48;;;;;;;5.40;2.57;;;;;;;;;;5094034;28;20178;-79
2021/07/07 09:42:14;;;;;;;8.27;2.83;;;;;;;;;;5094285;28;20188;-80
2021/07/07 09:44:40;;;;;;;4.40;2.27;;;;;;;;;;5093798;28;20176;-80
2021/07/07 09:47:06;;;;;;;3.70;2.40;;;;;;;;;;5094189;28;20197;-79
2021/07/07 09:49:33;;;;;;;8.40;3.10;;;;;;;;;;5091267;28;20636;-80
2021/07/07 09:51:59;;;;;;;8.27;2.70;;;;;;;;;;5094662;28;20575;-79
2021/07/07 09:54:25;;;;;;;8.53;2.50;;;;;;;;;;5092868;28;20193;-79
2021/07/07 09:56:51;;;;;;;4.40;2.00;;;;;;;;;;5088772;28;20211;-79
2021/07/07 09:59:17;;;;;;;4.33;2.30;;;;;;;;;;5094543;28;20265;-79
2021/07/07 10:01:47;;;;;;;5.23;2.23;;;;;;;;;;5083296;28;20263;-79
2021/07/07 10:04:17;;;;;;;4.10;2.90;;;;;;;;;;5091728;28;20183;-80
2021/07/07 10:06:43;;;;;;;3.50;2.27;;;;;;;;;;5091251;28;20210;-81
2021/07/07 10:09:10;;;;;;;4.33;2.73;;;;;;;;;;5093084;28;20190;-82
2021/07/07 10:11:37;;;;;;;8.07;2.87;;;;;;;;;;5089877;28;20187;-80
2021/07/07 10:14:04;;;;;;;5.63;2.43;;;;;;;;;;5089923;28;20172;-80
2021/07/07 10:16:31;;;;;;;2.87;1.90;;;;;;;;;;5094394;28;20271;-80
2021/07/07 10:18:57;;;;;;;4.80;2.23;;;;;;;;;;5090062;28;20259;-80
2021/07/07 10:21:23;;;;;;;4.87;2.53;;;;;;;;;;5086209;28;20188;-83
2021/07/07 10:23:49;;;;;;;6.83;2.77;;;;;;;;;;5093493;28;20236;-79
2021/07/07 10:26:16;;;;;;;16.77;10.70;;;;;;;;;;5093563;28;21052;-80
2021/07/07 10:28:42;;;;;;;6.13;2.97;;;;;;;;;;5092928;28;20168;-80
2021/07/07 10:31:08;;;;;;;4.23;2.97;;;;;;;;;;5095261;28;20225;-81
2021/07/07 10:33:38;;;;;;;6.97;2.73;;;;;;;;;;5092298;28;20812;-80
2021/07/07 10:36:24;;;;;;;8.77;4.30;;;;;;;;;;5089290;28;20222;-82
2021/07/07 10:38:50;;;;;;;8.87;3.20;;;;;;;;;;5086764;28;20183;-81
2021/07/07 10:41:16;;;;;;;7.30;2.50;;;;;;;;;;5092209;28;20188;-81
2021/07/07 10:43:46;;;;;;;2.97;2.20;;;;;;;;;;5092113;28;20179;-79
2021/07/07 10:46:31;;;;;;;3.80;3.23;;;;;;;;;;5084728;28;20196;-79
2021/07/07 10:49:16;;;;;;;3.03;2.53;;;;;;;;;;5083606;28;20247;-80
2021/07/07 10:51:45;;;;;;;4.97;2.30;;;;;;;;;;5084147;28;20183;-80
2021/07/07 10:54:21;;;;;;;5.00;2.07;;;;;;;;;;5092212;28;20613;-80
2021/07/07 10:56:47;;;;;;;278.00;176.80;;;;;;;;;;5091830;28;20179;-83
2021/07/07 10:59:33;;;;;;;401.30;333.13;;;;;;;;;;5092395;28;20486;-83
2021/07/07 11:02:06;;;;;;;158.03;116.67;;;;;;;;;;5086958;28;20172;-81
2021/07/07 11:04:33;;;;;;;87.13;66.23;;;;;;;;;;5092764;28;20193;-84
2021/07/07 11:07:19;;;;;;;25.20;15.00;;;;;;;;;;5092118;28;20337;-81
2021/07/07 11:09:45;;;;;;;23.07;13.50;;;;;;;;;;5091707;28;20195;-80
2021/07/07 11:12:11;;;;;;;17.17;12.83;;;;;;;;;;5091562;28;20817;-81
2021/07/07 11:14:37;;;;;;;21.40;15.10;;;;;;;;;;5090225;28;20200;-83
2021/07/07 11:17:04;;;;;;;8.90;7.10;;;;;;;;;;5091684;28;20187;-79
2021/07/07 11:19:44;;;;;;;11.70;8.40;;;;;;;;;;5089219;28;20273;-80
2021/07/07 11:22:11;;;;;;;5.27;3.20;;;;;;;;;;5089150;28;20253;-80
2021/07/07 11:24:37;;;;;;;7.00;3.57;;;;;;;;;;5090811;28;20184;-79
2021/07/07 11:27:04;;;;;;;5.83;2.93;;;;;;;;;;5090962;28;20213;-80
2021/07/07 11:29:31;;;;;;;2.63;2.30;;;;;;;;;;5090943;28;20204;-80
2021/07/07 11:31:57;;;;;;;4.77;2.30;;;;;;;;;;5092667;28;20248;-83
2021/07/07 11:34:23;;;;;;;6.80;2.87;;;;;;;;;;5075374;28;20244;-83
2021/07/07 11:36:49;;;;;;;4.37;2.43;;;;;;;;;;5088127;28;20288;-80
2021/07/07 11:39:20;;;;;;;5.97;2.40;;;;;;;;;;5087446;28;20416;-80
2021/07/07 11:42:03;;;;;;;8.43;2.07;;;;;;;;;;5079248;28;20225;-84
2021/07/07 11:44:39;;;;;;;8.20;2.27;;;;;;;;;;5092607;28;20197;-84
2021/07/07 11:47:05;;;;;;;2.80;1.87;;;;;;;;;;5073739;28;20210;-85
2021/07/07 11:49:31;;;;;;;5.40;2.47;;;;;;;;;;5072305;28;20264;-84
2021/07/07 11:52:04;;;;;;;10.20;2.83;;;;;;;;;;5093862;28;20167;-84
2021/07/07 11:54:45;;;;;;;4.10;2.30;;;;;;;;;;5091466;28;20571;-84
2021/07/07 11:57:11;;;;;;;3.47;2.53;;;;;;;;;;5073367;28;20164;-84
2021/07/07 11:59:37;;;;;;;3.83;2.00;;;;;;;;;;5083214;28;20186;-84
2021/07/07 12:02:03;;;;;;;4.57;2.37;;;;;;;;;;5088196;28;20198;-84
2021/07/07 12:04:29;;;;;;;5.73;2.13;;;;;;;;;;5091225;28;20188;-85
2021/07/07 12:06:59;;;;;;;5.80;1.77;;;;;;;;;;5088532;28;20348;-84
2021/07/07 12:09:25;;;;;;;5.87;1.47;;;;;;;;;;5091656;28;20195;-84
2021/07/07 12:11:55;;;;;;;6.77;2.87;;;;;;;;;;5079722;28;20177;-84
2021/07/07 12:14:25;;;;;;;5.80;2.20;;;;;;;;;;5092862;28;20691;-84
2021/07/07 12:16:51;;;;;;;2.90;1.87;;;;;;;;;;5088459;28;20180;-84
2021/07/07 12:19:18;;;;;;;3.75;2.00;;;;;;;;;;5091166;28;20192;-84
2021/07/07 12:21:45;;;;;;;4.13;3.17;;;;;;;;;;5086443;28;20216;-83
2021/07/07 12:24:16;;;;;;;6.03;2.00;;;;;;;;;;5091739;28;20183;-84
2021/07/07 12:26:43;;;;;;;5.83;2.00;;;;;;;;;;5094418;28;20715;-84
2021/07/07 12:29:20;;;;;;;2.93;1.63;;;;;;;;;;5095900;28;20195;-84
2021/07/07 12:31:47;;;;;;;8.67;2.23;;;;;;;;;;5096335;28;20270;-84
2021/07/07 12:34:14;;;;;;;4.13;1.93;;;;;;;;;;5096435;28;20181;-85
2021/07/07 12:36:40;;;;;;;4.10;2.10;;;;;;;;;;5091328;28;20602;-85
2021/07/07 12:39:12;;;;;;;4.20;2.03;;;;;;;;;;5058234;28;20286;-84
2021/07/07 12:41:39;;;;;;;3.47;1.83;;;;;;;;;;5057487;28;20203;-82
2021/07/07 12:46:35;;;;;;;3.83;1.63;;;;;;;;;;5074979;28;20212;-82
2021/07/07 12:49:01;;;;;;;2.97;1.70;;;;;;;;;;5063008;28;20185;-85
2021/07/07 12:51:29;;;;;;;2.90;1.77;;;;;;;;;;5055556;28;20278;-83
2021/07/07 12:53:56;;;;;;;3.67;1.90;;;;;;;;;;5076075;28;20180;-83
2021/07/07 12:56:22;;;;;;;5.33;2.03;;;;;;;;;;5056992;28;20267;-83
2021/07/07 12:59:07;;;;;;;5.83;1.70;;;;;;;;;;5057611;28;20207;-83
2021/07/07 13:01:33;;;;;;;3.07;1.50;;;;;;;;;;5071250;28;20183;-83
2021/07/07 13:03:59;;;;;;;3.50;1.73;;;;;;;;;;5083217;28;20210;-84
2021/07/07 13:06:25;;;;;;;3.90;1.60;;;;;;;;;;5054442;28;20696;-83
2021/07/07 13:09:11;;;;;;;2.90;1.60;;;;;;;;;;5057277;28;20184;-83
2021/07/07 13:11:37;;;;;;;5.73;1.67;;;;;;;;;;5056304;28;20189;-84
2021/07/07 13:14:12;;;;;;;4.53;2.20;;;;;;;;;;5070735;28;20428;-83
2021/07/07 13:16:38;;;;;;;2.97;1.87;;;;;;;;;;5069466;28;20182;-83
2021/07/07 13:19:14;;;;;;;4.13;2.00;;;;;;;;;;5058865;28;20696;-84
2021/07/07 13:21:50;;;;;;;7.40;2.50;;;;;;;;;;5082396;28;20257;-83
2021/07/07 13:24:22;;;;;;;8.67;1.80;;;;;;;;;;5059855;28;20813;-84
2021/07/07 13:27:00;;;;;;;4.13;2.23;;;;;;;;;;5061428;28;20662;-84
2021/07/07 13:29:35;;;;;;;1.87;1.40;;;;;;;;;;5073467;28;20625;-85
2021/07/07 13:32:01;;;;;;;3.23;1.60;;;;;;;;;;5058607;28;20227;-81
2021/07/07 13:34:27;;;;;;;2.70;1.57;;;;;;;;;;5043441;28;20262;-82
2021/07/07 13:36:53;;;;;;;6.80;1.90;;;;;;;;;;5075080;28;20219;-83
2021/07/07 13:39:20;;;;;;;3.00;1.60;;;;;;;;;;5074595;28;20210;-82
2021/07/07 13:41:46;;;;;;;5.33;1.83;;;;;;;;;;5069596;28;20183;-83
2021/07/07 13:44:12;;;;;;;5.43;2.10;;;;;;;;;;5075941;28;20208;-81
2021/07/07 13:46:38;;;;;;;2.20;1.80;;;;;;;;;;5075988;28;20747;-81
2021/07/07 13:49:04;;;;;;;4.87;1.80;;;;;;;;;;5076617;28;20178;-82
2021/07/07 13:51:30;;;;;;;3.13;2.10;;;;;;;;;;5075579;28;20537;-81
2021/07/07 13:53:56;;;;;;;3.80;2.17;;;;;;;;;;5062966;28;20630;-82
2021/07/07 13:56:23;;;;;;;2.75;1.80;;;;;;;;;;5079888;28;20442;-81
2021/07/07 13:58:50;;;;;;;3.27;1.70;;;;;;;;;;5074460;28;20559;-83
2021/07/07 14:01:16;;;;;;;2.67;1.77;;;;;;;;;;5076088;28;20191;-84
2021/07/07 14:03:42;;;;;;;2.83;1.90;;;;;;;;;;5060892;28;20256;-84
2021/07/07 14:06:08;;;;;;;4.33;1.97;;;;;;;;;;5084502;28;20191;-84
2021/07/07 14:08:34;;;;;;;3.97;1.80;;;;;;;;;;5059576;28;20193;-84
2021/07/07 14:11:01;;;;;;;5.97;2.73;;;;;;;;;;5076804;28;20183;-83
2021/07/07 14:13:27;;;;;;;3.03;1.70;;;;;;;;;;5076980;28;20634;-84
2021/07/07 14:15:56;;;;;;;8.07;1.83;;;;;;;;;;5059945;28;20191;-84
2021/07/07 14:18:22;;;;;;;1.97;1.57;;;;;;;;;;5060228;28;20242;-83
2021/07/07 14:20:48;;;;;;;2.10;1.57;;;;;;;;;;5058440;28;20277;-83
2021/07/07 14:23:14;;;;;;;4.30;1.57;;;;;;;;;;5078856;28;20206;-83
2021/07/07 14:25:40;;;;;;;1.63;1.50;;;;;;;;;;5058878;28;20202;-84
2021/07/07 14:28:06;;;;;;;5.47;1.70;;;;;;;;;;5058480;28;20178;-84
2021/07/07 14:30:32;;;;;;;1.40;1.30;;;;;;;;;;5055167;28;20176;-84
2021/07/07 14:32:58;;;;;;;1.60;1.50;;;;;;;;;;5051493;28;20179;-84
2021/07/07 14:35:24;;;;;;;3.23;1.60;;;;;;;;;;5069643;28;20204;-84
2021/07/07 14:37:50;;;;;;;4.60;1.63;;;;;;;;;;5093378;28;20223;-84
2021/07/07 14:40:16;;;;;;;2.80;1.73;;;;;;;;;;5095130;28;20177;-82
2021/07/07 14:42:42;;;;;;;4.13;1.80;;;;;;;;;;5088853;28;20186;-83